createdAt,value
2018-08-22T06:47:40.112Z,1366.88
2018-08-22T06:48:40.053Z,1355.62
2018-08-22T06:49:48.026Z,1389.38
2018-08-22T06:50:40.031Z,1417.50
2018-08-22T06:51:40.016Z,1440.00
2018-08-22T06:52:40.069Z,1440.00
2018-08-22T06:53:40.014Z,1434.38
2018-08-22T06:54:39.982Z,1490.62
2018-08-22T06:55:40.034Z,1563.75
2018-08-22T06:56:39.988Z,1569.38
2018-08-22T06:57:39.976Z,1530.00
2018-08-22T06:58:48.564Z,1563.75
2018-08-22T06:59:39.928Z,1569.38
2018-08-22T07:00:39.974Z,1614.38
2018-08-22T07:01:47.615Z,1648.12
2018-08-22T07:02:39.898Z,1591.88
2018-08-22T07:03:39.887Z,1597.50
2018-08-22T07:04:39.884Z,1642.50
2018-08-22T07:05:39.903Z,1665.00
2018-08-22T07:06:39.843Z,1676.25
2018-08-22T07:07:52.159Z,1710.00
2018-08-22T07:08:39.828Z,1721.25
2018-08-22T07:09:39.811Z,1704.38
2018-08-22T07:10:39.831Z,1648.12
2018-08-22T07:11:39.853Z,1726.88
2018-08-22T07:12:39.785Z,1783.12
2018-08-22T07:13:39.775Z,1856.25
2018-08-22T07:14:39.762Z,1828.12
2018-08-22T07:15:39.743Z,1822.50
2018-08-22T07:16:39.763Z,1991.25
2018-08-22T07:17:39.729Z,1991.25
2018-08-22T07:18:39.735Z,1974.38
2018-08-22T07:19:39.711Z,2002.50
2018-08-22T07:20:39.689Z,1974.38
2018-08-22T07:21:39.703Z,1918.12
2018-08-22T07:22:39.709Z,590.62
2018-08-22T07:23:39.667Z,871.88
2018-08-22T07:24:39.663Z,1631.25
2018-08-22T07:25:39.639Z,607.50
2018-08-22T07:26:39.761Z,669.38
2018-08-22T07:27:39.637Z,1040.62
2018-08-22T07:28:39.647Z,483.75
2018-08-22T07:29:39.606Z,1006.88
2018-08-22T07:30:39.584Z,1597.50
2018-08-22T07:31:39.625Z,354.38
2018-08-22T07:32:39.573Z,354.38
2018-08-22T07:33:39.557Z,365.62
2018-08-22T07:34:39.542Z,309.38
2018-08-22T07:35:39.562Z,258.75
2018-08-22T07:36:39.511Z,270.00
2018-08-22T07:39:23.043Z,309.38
2018-08-22T07:39:55.244Z,320.62
2018-08-22T07:40:55.219Z,399.38
2018-08-22T07:41:55.249Z,483.75
2018-08-22T07:42:55.227Z,534.38
2018-08-22T07:43:55.211Z,545.62
2018-08-22T07:44:55.187Z,798.75
2018-08-22T07:46:03.003Z,421.88
2018-08-22T07:46:55.147Z,843.75
2018-08-22T07:47:55.139Z,1057.50
2018-08-22T07:49:04.555Z,528.75
2018-08-22T07:49:55.119Z,303.75
2018-08-22T07:50:55.138Z,315.00
2018-08-22T07:52:03.079Z,326.25
2018-08-22T07:52:55.085Z,275.62
2018-08-22T07:53:55.102Z,281.25
2018-08-22T07:55:02.597Z,298.12
2018-08-22T07:55:55.053Z,455.62
2018-08-22T07:56:55.037Z,658.12
2018-08-22T07:58:04.160Z,646.88
2018-08-22T07:58:55.015Z,275.62
2018-08-22T07:59:54.995Z,303.75
2018-08-22T08:01:04.199Z,348.75
2018-08-22T08:01:55.042Z,303.75
2018-08-22T08:02:54.965Z,376.88
2018-08-22T08:03:54.949Z,365.62
2018-08-22T08:04:54.980Z,354.38
2018-08-22T08:05:54.966Z,286.88
2018-08-22T08:07:02.732Z,292.50
2018-08-22T08:07:54.913Z,298.12
2018-08-22T08:08:54.927Z,405.00
2018-08-22T08:10:04.266Z,506.25
2018-08-22T08:10:54.897Z,416.25
2018-08-22T08:11:54.897Z,275.62
2018-08-22T08:13:02.795Z,270.00
2018-08-22T08:13:54.842Z,371.25
2018-08-22T08:14:54.828Z,275.62
2018-08-22T08:16:01.909Z,405.00
2018-08-22T08:16:54.815Z,337.50
2018-08-22T08:17:54.804Z,331.88
2018-08-22T08:19:01.844Z,326.25
2018-08-22T08:19:54.781Z,337.50
2018-08-22T08:20:54.801Z,309.38
2018-08-22T08:22:02.871Z,286.88
2018-08-22T08:22:54.760Z,292.50
2018-08-22T08:23:54.744Z,298.12
2018-08-22T08:25:03.945Z,281.25
2018-08-22T08:25:54.719Z,281.25
2018-08-22T08:26:54.705Z,286.88
2018-08-22T08:28:04.973Z,303.75
2018-08-22T08:28:54.720Z,286.88
2018-08-22T08:29:54.664Z,298.12
2018-08-22T08:31:02.479Z,286.88
2018-08-22T08:31:54.646Z,354.38
2018-08-22T08:32:54.651Z,675.00
2018-08-22T08:34:02.514Z,478.12
2018-08-22T08:34:54.642Z,843.75
2018-08-22T08:35:54.630Z,669.38
2018-08-22T08:36:54.578Z,545.62
2018-08-22T08:37:54.621Z,303.75
2018-08-22T08:38:54.578Z,382.50
2018-08-22T08:39:54.550Z,815.62
2018-08-22T08:40:54.544Z,461.25
2018-08-22T08:41:54.527Z,585.00
2018-08-22T08:42:54.553Z,326.25
2018-08-22T08:43:54.507Z,348.75
2018-08-22T08:44:54.546Z,489.38
2018-08-22T08:46:03.537Z,528.75
2018-08-22T08:46:54.478Z,517.50
2018-08-22T08:47:54.463Z,472.50
2018-08-22T08:49:02.598Z,1153.12
2018-08-22T08:49:54.481Z,866.25
2018-08-22T08:50:54.431Z,517.50
2018-08-22T08:52:02.117Z,365.62
2018-08-22T08:52:54.426Z,1023.75
2018-08-22T08:53:54.391Z,450.00
2018-08-22T08:54:54.435Z,540.00
2018-08-22T08:55:54.393Z,365.62
2018-08-22T08:56:54.364Z,393.75
2018-08-22T08:58:02.279Z,1445.62
2018-08-22T08:58:54.345Z,371.25
2018-08-22T08:59:54.365Z,337.50
2018-08-22T09:00:54.313Z,393.75
2018-08-22T09:01:54.307Z,669.38
2018-08-22T09:02:54.293Z,343.12
2018-08-22T09:04:02.292Z,354.38
2018-08-22T09:04:54.300Z,337.50
2018-08-22T09:05:54.256Z,337.50
2018-08-22T09:06:54.247Z,371.25
2018-08-22T09:07:54.232Z,371.25
2018-08-22T09:08:54.230Z,433.12
2018-08-22T09:09:54.247Z,399.38
2018-08-22T09:10:54.197Z,371.25
2018-08-22T09:11:54.184Z,551.25
2018-08-22T09:12:54.179Z,421.88
2018-08-22T09:13:54.160Z,511.88
2018-08-22T09:15:54.234Z,641.25
2018-08-22T09:16:54.138Z,545.62
2018-08-22T09:17:54.121Z,523.12
2018-08-22T09:18:54.108Z,1153.12
2018-08-22T09:19:54.141Z,528.75
2018-08-22T09:20:54.098Z,545.62
2018-08-22T09:21:54.084Z,1085.62
2018-08-22T09:22:54.068Z,731.25
2018-08-22T09:23:54.073Z,1102.50
2018-08-22T09:24:54.108Z,2919.38
2018-08-22T09:25:54.034Z,2199.38
2018-08-22T09:26:54.073Z,2913.75
2018-08-22T09:27:54.010Z,2964.38
2018-08-22T09:28:53.996Z,2947.50
2018-08-22T09:29:54.059Z,2941.88
2018-08-22T09:30:54.040Z,3043.12
2018-08-22T09:31:54.015Z,2986.88
2018-08-22T09:32:53.995Z,2947.50
2018-08-22T09:33:53.951Z,3060.00
2018-08-22T09:34:53.946Z,3048.75
2018-08-22T09:35:53.933Z,2998.12
2018-08-22T09:37:03.250Z,2986.88
2018-08-22T09:37:53.899Z,3071.25
2018-08-22T09:38:53.896Z,3121.88
2018-08-22T09:39:53.936Z,3155.62
2018-08-22T09:40:53.879Z,3121.88
2018-08-22T09:41:53.891Z,3065.62
2018-08-22T09:43:03.296Z,3026.25
2018-08-22T09:43:53.845Z,3043.12
2018-08-22T09:44:53.829Z,3082.50
2018-08-22T09:45:53.821Z,3076.88
2018-08-22T09:46:53.809Z,3150.00
2018-08-22T09:47:53.841Z,3161.25
2018-08-22T09:48:53.784Z,3116.25
2018-08-22T09:49:53.790Z,3195.00
2018-08-22T09:50:53.844Z,3054.38
2018-08-22T09:51:53.753Z,3178.12
2018-08-22T09:52:53.796Z,3127.50
2018-08-22T09:53:53.746Z,3054.38
2018-08-22T09:54:53.755Z,3088.12
2018-08-22T09:55:53.723Z,3155.62
2018-08-22T09:56:53.763Z,3155.62
2018-08-22T09:57:53.791Z,3009.38
2018-08-22T09:58:53.702Z,2998.12
2018-08-22T09:59:53.680Z,3296.25
2018-08-22T10:00:53.667Z,3436.88
2018-08-22T10:01:53.712Z,3369.38
2018-08-22T10:02:53.668Z,3110.62
2018-08-22T10:03:53.682Z,2818.12
2018-08-22T10:04:53.615Z,2953.12
2018-08-22T10:05:53.600Z,3133.12
2018-08-22T10:06:53.716Z,3206.25
2018-08-22T10:07:53.596Z,3262.50
2018-08-22T10:08:53.605Z,3391.88
2018-08-22T10:09:53.575Z,3330.00
2018-08-22T10:10:53.548Z,2975.62
2018-08-22T10:11:53.570Z,3054.38
2018-08-22T10:12:53.528Z,3296.25
2018-08-22T10:13:53.592Z,3346.88
2018-08-22T10:14:53.516Z,3155.62
2018-08-22T10:16:01.269Z,3268.12
2018-08-22T10:16:53.492Z,3425.62
2018-08-22T10:17:53.482Z,3245.62
2018-08-22T10:18:53.514Z,2986.88
2018-08-22T10:19:53.462Z,3211.88
2018-08-22T10:20:53.446Z,3335.62
2018-08-22T10:21:53.432Z,3318.75
2018-08-22T10:22:53.429Z,3285.00
2018-08-22T10:23:53.454Z,3228.75
2018-08-22T10:24:53.411Z,3200.62
2018-08-22T10:25:53.409Z,3234.38
2018-08-22T10:26:53.437Z,3346.88
2018-08-22T10:27:53.378Z,3301.88
2018-08-22T10:28:53.417Z,3448.12
2018-08-22T10:29:53.371Z,3408.75
2018-08-22T10:30:53.353Z,3307.50
2018-08-22T10:31:53.365Z,3436.88
2018-08-22T10:32:53.453Z,3560.62
2018-08-22T10:33:53.383Z,3493.12
2018-08-22T10:34:53.346Z,3358.12
2018-08-22T10:35:53.320Z,3521.25
2018-08-22T10:37:01.315Z,3813.75
2018-08-22T10:37:53.289Z,3532.50
2018-08-22T10:38:53.273Z,3420.00
2018-08-22T10:39:53.307Z,3408.75
2018-08-22T10:40:53.253Z,3341.25
2018-08-22T10:41:53.245Z,3470.62
2018-08-22T10:42:53.233Z,3600.00
2018-08-22T10:43:53.227Z,3493.12
2018-08-22T10:44:53.272Z,3442.50
2018-08-22T10:45:53.247Z,3358.12
2018-08-22T10:46:53.221Z,3510.00
2018-08-22T10:47:53.207Z,3504.38
2018-08-22T10:48:53.203Z,3431.25
2018-08-22T10:49:53.214Z,3453.75
2018-08-22T10:50:53.198Z,3386.25
2018-08-22T10:51:53.158Z,3425.62
2018-08-22T10:52:53.133Z,3498.75
2018-08-22T10:53:53.171Z,3420.00
2018-08-22T10:54:53.167Z,3448.12
2018-08-22T10:55:53.109Z,3335.62
2018-08-22T10:56:53.101Z,3335.62
2018-08-22T10:57:53.076Z,3358.12
2018-08-22T10:58:53.106Z,3465.00
2018-08-22T10:59:53.067Z,3594.38
2018-08-22T11:01:01.097Z,3532.50
2018-08-22T11:01:53.046Z,3538.12
2018-08-22T11:02:53.020Z,3465.00
2018-08-22T11:03:53.007Z,3459.38
2018-08-22T11:04:53.009Z,3588.75
2018-08-22T11:05:53.028Z,3605.62
2018-08-22T11:06:52.981Z,3538.12
2018-08-22T11:07:52.981Z,3611.25
2018-08-22T11:08:52.960Z,3526.88
2018-08-22T11:09:52.959Z,3245.62
2018-08-22T11:10:53.025Z,3375.00
2018-08-22T11:11:52.973Z,3380.62
2018-08-22T11:12:52.924Z,3307.50
2018-08-22T11:13:52.940Z,3375.00
2018-08-22T11:14:52.946Z,3571.88
2018-08-22T11:15:53.081Z,3543.75
2018-08-22T11:16:52.948Z,3290.62
2018-08-22T11:17:52.992Z,3380.62
2018-08-22T11:18:52.884Z,3436.88
2018-08-22T11:19:52.878Z,3268.12
2018-08-22T11:20:52.884Z,3358.12
2018-08-22T11:21:52.892Z,3470.62
2018-08-22T11:22:52.893Z,3538.12
2018-08-22T11:23:52.824Z,3504.38
2018-08-22T11:25:00.388Z,3442.50
2018-08-22T11:25:52.790Z,3386.25
2018-08-22T11:26:52.841Z,3408.75
2018-08-22T11:27:52.798Z,3639.38
2018-08-22T11:28:52.792Z,3465.00
2018-08-22T11:29:52.777Z,3183.75
2018-08-22T11:30:52.765Z,3262.50
2018-08-22T11:31:52.806Z,3256.88
2018-08-22T11:32:52.759Z,3391.88
2018-08-22T11:33:52.736Z,3178.12
2018-08-22T11:34:52.730Z,2896.88
2018-08-22T11:35:52.723Z,3240.00
2018-08-22T11:37:01.951Z,3515.62
2018-08-22T11:37:52.725Z,3768.75
2018-08-22T11:38:52.684Z,3813.75
2018-08-22T11:40:02.004Z,3616.88
2018-08-22T11:40:52.687Z,3555.00
2018-08-22T11:41:52.658Z,3515.62
2018-08-22T11:42:52.653Z,3498.75
2018-08-22T11:43:52.638Z,3577.50
2018-08-22T11:44:52.674Z,3667.50
2018-08-22T11:45:52.648Z,3369.38
2018-08-22T11:46:52.704Z,3408.75
2018-08-22T11:47:52.615Z,3515.62
2018-08-22T11:48:52.597Z,3571.88
2018-08-22T11:49:52.623Z,3346.88
2018-08-22T11:50:52.585Z,3262.50
2018-08-22T11:51:52.564Z,3251.25
2018-08-22T11:52:52.558Z,3352.50
2018-08-22T11:53:52.524Z,3442.50
2018-08-22T11:54:52.564Z,3521.25
2018-08-22T11:55:52.512Z,3650.62
2018-08-22T11:56:52.490Z,3600.00
2018-08-22T11:57:52.482Z,3420.00
2018-08-22T11:58:52.464Z,3335.62
2018-08-22T11:59:52.524Z,3431.25
2018-08-22T12:01:00.017Z,3155.62
2018-08-22T12:01:52.514Z,2790.00
2018-08-22T12:02:52.430Z,3127.50
2018-08-22T12:03:52.421Z,3414.38
2018-08-22T12:04:52.472Z,3549.38
2018-08-22T12:05:52.460Z,3583.12
2018-08-22T12:07:00.031Z,3380.62
2018-08-22T12:07:52.380Z,3403.12
2018-08-22T12:08:52.388Z,3397.50
2018-08-22T12:09:52.414Z,3358.12
2018-08-22T12:10:52.369Z,3380.62
2018-08-22T12:11:52.354Z,3420.00
2018-08-22T12:12:52.334Z,3481.88
2018-08-22T12:13:52.321Z,3521.25
2018-08-22T12:14:52.348Z,3515.62
2018-08-22T12:15:52.299Z,3521.25
2018-08-22T12:16:52.353Z,3476.25
2018-08-22T12:17:52.282Z,3448.12
2018-08-22T12:18:52.270Z,3465.00
2018-08-22T12:19:52.254Z,3262.50
2018-08-22T12:20:52.252Z,3060.00
2018-08-22T12:22:01.611Z,3105.00
2018-08-22T12:22:52.260Z,2767.50
2018-08-22T12:23:52.250Z,2908.12
2018-08-22T12:25:00.109Z,3268.12
2018-08-22T12:25:52.219Z,3183.75
2018-08-22T12:26:52.245Z,3105.00
2018-08-22T12:28:02.683Z,3110.62
2018-08-22T12:28:52.186Z,3425.62
2018-08-22T12:29:52.175Z,3645.00
2018-08-22T12:31:00.216Z,3605.62
2018-08-22T12:31:52.150Z,3526.88
2018-08-22T12:32:52.141Z,3431.25
2018-08-22T12:33:52.171Z,3375.00
2018-08-22T12:34:52.115Z,3273.75
2018-08-22T12:35:52.105Z,3330.00
2018-08-22T12:37:00.698Z,3448.12
2018-08-22T12:37:52.223Z,3391.88
2018-08-22T12:38:52.107Z,3290.62
2018-08-22T12:39:59.753Z,3363.75
2018-08-22T12:40:52.554Z,3538.12
2018-08-22T12:41:52.074Z,3504.38
2018-08-22T12:42:59.788Z,3504.38
2018-08-22T12:43:52.035Z,3538.12
2018-08-22T12:44:52.023Z,3369.38
2018-08-22T12:45:52.011Z,3088.12
2018-08-22T12:46:52.044Z,3234.38
2018-08-22T12:47:51.993Z,3172.50
2018-08-22T12:48:51.985Z,3172.50
2018-08-22T12:49:52.051Z,3065.62
2018-08-22T12:50:51.959Z,3071.25
2018-08-22T12:51:52.097Z,3071.25
2018-08-22T12:52:51.943Z,3296.25
2018-08-22T12:53:51.939Z,3290.62
2018-08-22T12:54:51.919Z,3330.00
2018-08-22T12:55:51.931Z,3504.38
2018-08-22T12:56:51.939Z,3341.25
2018-08-22T12:57:52.081Z,3093.75
2018-08-22T12:58:52.061Z,3150.00
2018-08-22T12:59:52.133Z,3200.62
2018-08-22T13:00:51.941Z,3240.00
2018-08-22T13:01:52.316Z,3318.75
2018-08-22T13:02:52.102Z,3330.00
2018-08-22T13:03:52.031Z,3183.75
2018-08-22T13:04:52.113Z,3172.50
2018-08-22T13:05:52.073Z,3076.88
2018-08-22T13:06:52.381Z,3076.88
2018-08-22T13:07:52.360Z,3127.50
2018-08-22T13:08:51.789Z,3183.75
2018-08-22T13:09:52.070Z,3178.12
2018-08-22T13:10:51.986Z,3189.38
2018-08-22T13:11:52.096Z,3144.38
2018-08-22T13:12:51.766Z,3121.88
2018-08-22T13:13:51.815Z,3346.88
2018-08-22T13:14:52.235Z,3183.75
2018-08-22T13:15:52.359Z,2880.00
2018-08-22T13:16:52.130Z,2936.25
2018-08-22T13:17:51.883Z,3121.88
2018-08-22T13:18:51.706Z,3240.00
2018-08-22T13:19:51.849Z,3133.12
2018-08-22T13:20:51.704Z,3144.38
2018-08-22T13:21:51.819Z,3088.12
2018-08-22T13:22:51.898Z,3026.25
2018-08-22T13:23:52.023Z,3127.50
2018-08-22T13:24:51.621Z,3076.88
2018-08-22T13:25:52.267Z,3071.25
2018-08-22T13:26:51.933Z,3127.50
2018-08-22T13:27:51.811Z,3065.62
2018-08-22T13:28:51.904Z,2992.50
2018-08-22T13:29:51.885Z,3009.38
2018-08-22T13:31:00.832Z,3065.62
2018-08-22T13:31:51.729Z,3071.25
2018-08-22T13:32:51.930Z,3026.25
2018-08-22T13:33:51.644Z,3003.75
2018-08-22T13:34:51.518Z,3065.62
2018-08-22T13:35:51.805Z,3110.62
2018-08-22T13:36:58.678Z,2975.62
2018-08-22T13:37:51.494Z,2885.62
2018-08-22T13:38:52.226Z,2992.50
2018-08-22T13:39:51.529Z,3060.00
2018-08-22T13:40:51.733Z,3003.75
2018-08-22T13:41:51.919Z,3088.12
2018-08-22T13:42:53.323Z,3071.25
2018-08-22T13:43:52.097Z,3105.00
2018-08-22T13:44:51.571Z,3144.38
2018-08-22T13:45:51.625Z,3189.38
2018-08-22T13:46:51.843Z,3211.88
2018-08-22T13:47:51.406Z,3110.62
2018-08-22T13:48:51.744Z,3037.50
2018-08-22T13:49:51.525Z,2925.00
2018-08-22T13:50:51.618Z,3003.75
2018-08-22T13:51:51.570Z,3178.12
2018-08-22T13:52:52.248Z,3026.25
2018-08-22T13:53:51.516Z,3003.75
2018-08-22T13:54:51.589Z,2998.12
2018-08-22T13:55:51.839Z,3003.75
2018-08-22T13:56:51.319Z,2964.38
2018-08-22T13:57:51.539Z,2953.12
2018-08-22T13:58:51.563Z,2998.12
2018-08-22T13:59:51.457Z,3003.75
2018-08-22T14:00:51.326Z,3048.75
2018-08-22T14:01:51.734Z,3009.38
2018-08-22T14:02:51.262Z,2941.88
2018-08-22T14:03:51.236Z,2885.62
2018-08-22T14:04:51.626Z,2885.62
2018-08-22T14:05:51.235Z,2756.25
2018-08-22T14:06:51.219Z,2863.12
2018-08-22T14:07:51.518Z,2756.25
2018-08-22T14:08:51.383Z,2711.25
2018-08-22T14:09:51.430Z,2688.75
2018-08-22T14:10:51.289Z,2683.12
2018-08-22T14:11:52.333Z,2649.38
2018-08-22T14:12:51.483Z,2795.62
2018-08-22T14:13:51.224Z,2840.62
2018-08-22T14:14:51.168Z,2491.88
2018-08-22T14:15:51.265Z,2396.25
2018-08-22T14:16:51.202Z,1867.50
2018-08-22T14:17:51.455Z,2143.12
2018-08-22T14:18:51.222Z,2233.12
2018-08-22T14:19:51.319Z,1878.75
2018-08-22T14:20:51.136Z,1659.38
2018-08-22T14:21:51.435Z,1726.88
2018-08-22T14:22:51.058Z,1968.75
2018-08-22T14:23:51.260Z,2469.38
2018-08-22T14:24:51.024Z,2041.88
2018-08-22T14:25:51.231Z,1935.00
2018-08-22T14:26:51.193Z,1985.62
2018-08-22T14:27:51.109Z,2244.38
2018-08-22T14:28:50.976Z,2289.38
2018-08-22T14:29:51.225Z,2385.00
2018-08-22T14:30:50.999Z,2581.88
2018-08-22T14:31:51.943Z,2677.50
2018-08-22T14:32:50.936Z,2615.62
2018-08-22T14:33:51.220Z,2576.25
2018-08-22T14:34:51.148Z,2491.88
2018-08-22T14:35:50.956Z,2598.75
2018-08-22T14:36:51.128Z,2604.38
2018-08-22T14:37:51.131Z,2570.62
2018-08-22T14:38:50.869Z,2514.38
2018-08-22T14:39:50.876Z,2491.88
2018-08-22T14:40:51.187Z,2576.25
2018-08-22T14:41:51.197Z,2514.38
2018-08-22T14:42:50.965Z,2385.00
2018-08-22T14:43:51.054Z,2210.62
2018-08-22T14:44:50.966Z,2261.25
2018-08-22T14:45:50.921Z,2250.00
2018-08-22T14:46:50.852Z,2317.50
2018-08-22T14:47:50.795Z,2340.00
2018-08-22T14:48:50.782Z,2266.88
2018-08-22T14:49:50.788Z,2266.88
2018-08-22T14:50:50.755Z,2401.88
2018-08-22T14:51:50.793Z,2289.38
2018-08-22T14:52:50.733Z,2216.25
2018-08-22T14:53:50.732Z,2205.00
2018-08-22T14:54:50.731Z,2244.38
2018-08-22T14:55:50.784Z,2210.62
2018-08-22T14:56:50.733Z,2053.12
2018-08-22T14:57:50.683Z,1923.75
2018-08-22T14:58:50.676Z,1895.62
2018-08-22T14:59:50.669Z,2126.25
2018-08-22T15:00:50.655Z,2171.25
2018-08-22T15:01:50.692Z,1996.88
2018-08-22T15:02:50.957Z,1653.75
2018-08-22T15:03:50.621Z,1822.50
2018-08-22T15:04:50.608Z,1743.75
2018-08-22T15:05:50.603Z,1698.75
2018-08-22T15:06:50.623Z,1479.38
2018-08-22T15:07:50.579Z,1198.12
2018-08-22T15:08:50.569Z,1096.88
2018-08-22T15:09:50.559Z,596.25
2018-08-22T15:10:50.551Z,517.50
2018-08-22T15:11:50.576Z,438.75
2018-08-22T15:12:50.639Z,697.50
2018-08-22T15:13:50.518Z,675.00
2018-08-22T15:14:50.508Z,967.50
2018-08-22T15:15:50.518Z,871.88
2018-08-22T15:16:50.501Z,624.38
2018-08-22T15:17:50.496Z,489.38
2018-08-22T15:18:58.383Z,478.12
2018-08-22T15:19:50.526Z,680.62
2018-08-22T15:20:50.427Z,883.12
2018-08-22T15:21:50.430Z,511.88
2018-08-22T15:22:50.456Z,388.12
2018-08-22T15:23:50.396Z,438.75
2018-08-22T15:24:50.393Z,573.75
2018-08-22T15:25:50.370Z,393.75
2018-08-22T15:26:50.365Z,348.75
2018-08-22T15:27:50.399Z,303.75
2018-08-22T15:28:50.347Z,315.00
2018-08-22T15:29:50.370Z,298.12
2018-08-22T15:30:50.343Z,303.75
2018-08-22T15:31:50.329Z,298.12
2018-08-22T15:32:50.351Z,326.25
2018-08-22T15:33:50.292Z,337.50
2018-08-22T15:34:50.277Z,326.25
2018-08-22T15:35:50.300Z,360.00
2018-08-22T15:36:50.259Z,405.00
2018-08-22T15:37:50.240Z,348.75
2018-08-22T15:38:50.244Z,326.25
2018-08-22T15:39:50.226Z,309.38
2018-08-22T15:40:50.300Z,315.00
2018-08-22T15:41:50.270Z,320.62
2018-08-22T15:42:57.902Z,320.62
2018-08-22T15:43:50.181Z,315.00
2018-08-22T15:44:50.174Z,315.00
2018-08-22T15:45:59.474Z,309.38
2018-08-22T15:46:50.156Z,331.88
2018-08-22T15:47:50.165Z,320.62
2018-08-22T15:48:57.990Z,326.25
2018-08-22T15:49:50.120Z,326.25
2018-08-22T15:50:50.152Z,320.62
2018-08-22T15:51:58.028Z,309.38
2018-08-22T15:52:50.096Z,320.62
2018-08-22T15:53:50.084Z,320.62
2018-08-22T15:54:58.065Z,315.00
2018-08-22T15:55:50.102Z,315.00
2018-08-22T15:56:50.056Z,315.00
2018-08-22T15:57:50.033Z,315.00
2018-08-22T15:58:50.119Z,315.00
2018-08-22T15:59:50.014Z,326.25
2018-08-22T16:00:50.040Z,326.25
2018-08-22T16:01:49.986Z,320.62
2018-08-22T16:02:50.008Z,326.25
2018-08-22T16:03:49.970Z,320.62
2018-08-22T16:04:49.955Z,320.62
2018-08-22T16:05:49.981Z,320.62
2018-08-22T16:06:49.929Z,315.00
2018-08-22T16:07:49.936Z,315.00
2018-08-22T16:08:49.959Z,303.75
2018-08-22T16:09:49.920Z,303.75
2018-08-22T16:10:49.892Z,303.75
2018-08-22T16:11:49.912Z,298.12
2018-08-22T16:12:49.869Z,298.12
2018-08-22T16:13:49.844Z,292.50
2018-08-22T16:14:49.834Z,286.88
2018-08-22T16:15:49.823Z,275.62
2018-08-22T16:16:49.865Z,275.62
2018-08-22T16:17:49.812Z,281.25
2018-08-22T16:18:49.795Z,275.62
2018-08-22T16:19:49.780Z,275.62
2018-08-22T16:20:49.778Z,275.62
2018-08-22T16:21:49.794Z,270.00
2018-08-22T16:22:49.755Z,270.00
2018-08-22T16:23:49.731Z,264.38
2018-08-22T16:24:49.778Z,264.38
2018-08-22T16:25:49.740Z,258.75
2018-08-22T16:26:49.720Z,258.75
2018-08-22T16:27:49.706Z,253.12
2018-08-22T16:28:49.718Z,253.12
2018-08-22T16:29:49.725Z,247.50
2018-08-22T16:30:56.860Z,247.50
2018-08-22T16:31:49.658Z,241.88
2018-08-22T16:32:49.660Z,236.25
2018-08-22T16:33:49.646Z,236.25
2018-08-22T16:34:49.696Z,230.62
2018-08-22T16:35:49.620Z,230.62
2018-08-22T16:36:57.600Z,225.00
2018-08-22T16:37:49.596Z,225.00
2018-08-22T16:38:49.603Z,219.38
2018-08-22T16:39:49.560Z,208.12
2018-08-22T16:40:49.552Z,213.75
2018-08-22T16:41:49.573Z,208.12
2018-08-22T16:42:49.532Z,202.50
2018-08-22T16:43:49.520Z,202.50
2018-08-22T16:44:49.504Z,196.88
2018-08-22T16:45:49.500Z,196.88
2018-08-22T16:46:49.525Z,191.25
2018-08-22T16:47:49.476Z,185.62
2018-08-22T16:48:49.464Z,174.38
2018-08-22T16:49:49.452Z,168.75
2018-08-22T16:50:49.435Z,163.12
2018-08-22T16:51:57.660Z,163.12
2018-08-22T16:52:49.431Z,157.50
2018-08-22T16:53:49.411Z,151.88
2018-08-22T16:54:49.389Z,151.88
2018-08-22T16:55:49.429Z,146.25
2018-08-22T16:56:49.369Z,146.25
2018-08-22T16:57:49.368Z,146.25
2018-08-22T16:58:49.362Z,140.62
2018-08-22T16:59:49.333Z,140.62
2018-08-22T17:00:49.367Z,135.00
2018-08-22T17:01:49.393Z,135.00
2018-08-22T17:02:49.303Z,135.00
2018-08-22T17:03:49.354Z,135.00
2018-08-22T17:04:49.290Z,129.38
2018-08-22T17:05:49.340Z,129.38
2018-08-22T17:06:49.260Z,129.38
2018-08-22T17:07:49.297Z,129.38
2018-08-22T17:08:49.248Z,123.75
2018-08-22T17:09:49.237Z,123.75
2018-08-22T17:10:49.230Z,123.75
2018-08-22T17:11:49.214Z,123.75
2018-08-22T17:12:49.256Z,118.12
2018-08-22T17:13:49.192Z,118.12
2018-08-22T17:14:49.198Z,118.12
2018-08-22T17:15:49.174Z,118.12
2018-08-22T17:16:49.158Z,112.50
2018-08-22T17:17:49.177Z,112.50
2018-08-22T17:18:49.165Z,112.50
2018-08-22T17:19:49.125Z,106.88
2018-08-22T17:20:49.120Z,106.88
2018-08-22T17:21:49.119Z,106.88
2018-08-22T17:22:49.095Z,106.88
2018-08-22T17:23:49.110Z,101.25
2018-08-22T17:24:49.082Z,101.25
2018-08-22T17:25:49.059Z,101.25
2018-08-22T17:26:49.052Z,95.62
2018-08-22T17:27:49.059Z,95.62
2018-08-22T17:28:49.062Z,90.00
2018-08-22T17:29:49.015Z,90.00
2018-08-22T17:30:49.010Z,90.00
2018-08-22T17:31:48.995Z,84.38
2018-08-22T17:32:48.983Z,84.38
2018-08-22T17:33:57.198Z,84.38
2018-08-22T17:34:49.008Z,84.38
2018-08-22T17:35:48.944Z,78.75
2018-08-22T17:36:48.938Z,78.75
2018-08-22T17:37:48.927Z,78.75
2018-08-22T17:38:48.909Z,73.12
2018-08-22T17:39:48.940Z,73.12
2018-08-22T17:40:48.877Z,73.12
2018-08-22T17:41:48.881Z,73.12
2018-08-22T17:42:48.861Z,67.50
2018-08-22T17:43:48.847Z,67.50
2018-08-22T17:44:48.871Z,67.50
2018-08-22T17:45:48.820Z,61.88
2018-08-22T17:46:48.877Z,61.88
2018-08-22T17:47:48.845Z,61.88
2018-08-22T17:48:48.791Z,61.88
2018-08-22T17:49:48.798Z,56.25
2018-08-22T17:50:48.929Z,56.25
2018-08-22T17:51:48.813Z,56.25
2018-08-22T17:52:48.747Z,50.62
2018-08-22T17:53:48.734Z,50.62
2018-08-22T17:54:48.728Z,50.62
2018-08-22T17:55:48.711Z,45.00
2018-08-22T17:56:48.743Z,45.00
2018-08-22T17:57:48.690Z,39.38
2018-08-22T17:58:48.681Z,39.38
2018-08-22T17:59:48.673Z,39.38
2018-08-22T18:00:48.661Z,33.75
2018-08-22T18:01:48.672Z,33.75
2018-08-22T18:02:48.669Z,33.75
2018-08-22T18:03:48.627Z,28.12
2018-08-22T18:04:48.625Z,28.12
2018-08-22T18:05:48.607Z,28.12
2018-08-22T18:06:48.596Z,22.50
2018-08-22T18:07:48.611Z,22.50
2018-08-22T18:08:48.569Z,22.50
2018-08-22T18:09:48.573Z,22.50
2018-08-22T18:10:48.553Z,16.88
2018-08-22T18:11:48.584Z,16.88
2018-08-22T18:12:48.723Z,16.88
2018-08-22T18:13:48.580Z,16.88
2018-08-22T18:14:48.513Z,16.88
2018-08-22T18:15:48.532Z,11.25
2018-08-22T18:16:48.552Z,11.25
2018-08-22T18:17:48.528Z,11.25
2018-08-22T18:18:48.495Z,11.25
2018-08-22T18:19:48.660Z,11.25
2018-08-22T18:20:48.502Z,11.25
2018-08-22T18:21:48.471Z,5.62
2018-08-22T18:22:48.459Z,5.62
2018-08-22T18:23:48.426Z,5.62
2018-08-22T18:24:48.765Z,5.62
2018-08-22T18:25:48.472Z,5.62
2018-08-22T18:26:48.367Z,5.62
2018-08-22T18:27:48.454Z,5.62
2018-08-22T18:28:48.393Z,5.62
2018-08-22T18:29:48.377Z,5.62
2018-08-22T18:30:48.351Z,0.00
2018-08-22T18:31:48.325Z,0.00
2018-08-22T18:32:48.332Z,0.00
2018-08-22T18:33:48.307Z,0.00
2018-08-22T18:34:48.359Z,0.00
2018-08-22T18:35:48.289Z,0.00
2018-08-22T18:36:48.281Z,0.00
2018-08-22T18:37:48.296Z,0.00
2018-08-22T18:38:48.242Z,0.00
2018-08-22T18:39:48.255Z,0.00
2018-08-22T18:40:48.240Z,0.00
2018-08-22T18:41:48.228Z,0.00
2018-08-22T18:42:48.287Z,0.00
2018-08-22T18:43:48.231Z,0.00
2018-08-22T18:44:48.239Z,0.00
2018-08-22T18:45:48.158Z,0.00
2018-08-22T18:46:48.160Z,0.00
2018-08-22T18:47:48.187Z,0.00
2018-08-22T18:48:48.142Z,0.00
2018-08-22T18:49:48.116Z,0.00
2018-08-22T18:50:48.130Z,0.00
2018-08-22T18:51:48.132Z,0.00
2018-08-22T18:52:48.156Z,0.00
2018-08-22T18:53:48.114Z,0.00
2018-08-22T18:55:56.806Z,0.00
2018-08-22T18:56:56.778Z,0.00
2018-08-22T18:57:56.770Z,0.00
2018-08-22T18:58:57.074Z,0.00
2018-08-22T18:59:56.742Z,0.00
2018-08-22T19:00:56.714Z,0.00
2018-08-22T19:01:56.733Z,0.00
2018-08-22T19:03:04.543Z,0.00
2018-08-22T19:03:56.719Z,0.00
2018-08-22T19:04:56.684Z,0.00
2018-08-22T19:05:56.688Z,0.00
2018-08-22T19:06:56.682Z,0.00
2018-08-22T19:07:56.694Z,0.00
2018-08-22T19:08:56.634Z,0.00
2018-08-22T19:09:56.614Z,0.00
2018-08-22T19:10:56.683Z,0.00
2018-08-22T19:11:56.618Z,0.00